Celeste Hinkle, North Carolina
Current Conditions -  °F | °C
As of 6:15 PM on Thursday 27 Nov 2014 (Local Time) from KSVH Reporting Station
Overcast Overcast  
Wind Chill: 40°   Ceiling: 4800
Heat Index: 40°   Visibility: 10mi
Dew Point: 29°   Wind: 3mph
Humidity: 64%   Direction: 250°WSW
Pressure: 30.2"   Gusts: NA
Location:  35.8306°N, 80.9003°W
Report Text: KSVH 272315Z AUTO 25003KT 10SM BKN048 OVC060 04/M02 A3020 RMK AO2 T00441019
Loading
Personal Weather Stations






























Interactive Weather Map New forecast layout! Learn more

10-Day Weather Forecast

Advertisements
Track Severe Weather on mobile